sensor_id;sensor_type;location;lat;lon;timestamp;pressure;altitude;pressure_sealevel;temperature;humidity
17635;BME280;8936;49.010;12.120;2023-02-28T00:00:03;98682.19;;;0.34;100.00
17635;BME280;8936;49.010;12.120;2023-02-28T00:02:35;98677.03;;;0.41;100.00
17635;BME280;8936;49.010;12.120;2023-02-28T00:05:01;98672.38;;;0.14;100.00
17635;BME280;8936;49.010;12.120;2023-02-28T00:07:28;98674.31;;;-0.03;100.00
17635;BME280;8936;49.010;12.120;2023-02-28T00:09:55;98678.13;;;-0.06;100.00
17635;BME280;8936;49.010;12.120;2023-02-28T00:12:21;98667.59;;;0.17;100.00
17635;BME280;8936;49.010;12.120;2023-02-28T00:14:47;98670.25;;;0.90;100.00
17635;BME280;8936;49.010;12.120;2023-02-28T00:17:14;98664.66;;;1.15;100.00
17635;BME280;8936;49.010;12.120;2023-02-28T00:19:42;98674.44;;;0.56;100.00
17635;BME280;8936;49.010;12.120;2023-02-28T00:22:09;98660.66;;;0.83;100.00
17635;BME280;8936;49.010;12.120;2023-02-28T00:24:35;98662.66;;;0.66;100.00
17635;BME280;8936;49.010;12.120;2023-02-28T00:27:01;98663.72;;;0.57;100.00
17635;BME280;8936;49.010;12.120;2023-02-28T00:29:28;98653.75;;;0.82;100.00
17635;BME280;8936;49.010;12.120;2023-02-28T00:31:54;98662.28;;;0.98;100.00
17635;BME280;8936;49.010;12.120;2023-02-28T00:34:20;98650.81;;;1.21;100.00
17635;BME280;8936;49.010;12.120;2023-02-28T00:36:48;98650.81;;;1.21;100.00
17635;BME280;8936;49.010;12.120;2023-02-28T00:39:14;98656.56;;;1.31;100.00
17635;BME280;8936;49.010;12.120;2023-02-28T00:41:41;98655.41;;;1.19;100.00
17635;BME280;8936;49.010;12.120;2023-02-28T00:44:07;98649.31;;;0.82;100.00
17635;BME280;8936;49.010;12.120;2023-02-28T00:46:34;98647.94;;;0.72;100.00
17635;BME280;8936;49.010;12.120;2023-02-28T00:49:00;98652.66;;;0.32;100.00
17635;BME280;8936;49.010;12.120;2023-02-28T00:51:26;98645.81;;;0.46;100.00
17635;BME280;8936;49.010;12.120;2023-02-28T00:53:55;98641.63;;;0.51;100.00
17635;BME280;8936;49.010;12.120;2023-02-28T00:56:21;98640.63;;;0.38;100.00
17635;BME280;8936;49.010;12.120;2023-02-28T00:58:47;98641.88;;;0.27;100.00
17635;BME280;8936;49.010;12.120;2023-02-28T01:01:14;98634.97;;;0.12;100.00
17635;BME280;8936;49.010;12.120;2023-02-28T01:03:40;98632.47;;;-0.19;100.00
17635;BME280;8936;49.010;12.120;2023-02-28T01:06:07;98626.81;;;0.07;100.00
17635;BME280;8936;49.010;12.120;2023-02-28T01:08:33;98634.53;;;-0.29;100.00
17635;BME280;8936;49.010;12.120;2023-02-28T01:11:07;98640.28;;;-0.11;100.00
17635;BME280;8936;49.010;12.120;2023-02-28T01:13:34;98628.56;;;0.14;100.00
17635;BME280;8936;49.010;12.120;2023-02-28T01:16:00;98624.78;;;0.46;100.00
17635;BME280;8936;49.010;12.120;2023-02-28T01:18:27;98625.00;;;0.22;100.00
17635;BME280;8936;49.010;12.120;2023-02-28T01:20:53;98634.25;;;0.03;100.00
17635;BME280;8936;49.010;12.120;2023-02-28T01:23:20;98633.94;;;-0.02;100.00
17635;BME280;8936;49.010;12.120;2023-02-28T01:25:47;98634.25;;;0.03;100.00
17635;BME280;8936;49.010;12.120;2023-02-28T01:28:15;98627.81;;;0.06;100.00
17635;BME280;8936;49.010;12.120;2023-02-28T01:30:41;98626.75;;;0.15;100.00
17635;BME280;8936;49.010;12.120;2023-02-28T01:33:08;98623.81;;;0.10;100.00
17635;BME280;8936;49.010;12.120;2023-02-28T01:35:34;98627.41;;;0.46;100.00
17635;BME280;8936;49.010;12.120;2023-02-28T01:38:01;98626.03;;;0.79;100.00
17635;BME280;8936;49.010;12.120;2023-02-28T01:40:27;98625.22;;;0.20;100.00
17635;BME280;8936;49.010;12.120;2023-02-28T01:42:53;98619.59;;;0.09;100.00
17635;BME280;8936;49.010;12.120;2023-02-28T01:45:22;98635.22;;;-0.13;100.00
17635;BME280;8936;49.010;12.120;2023-02-28T01:47:52;98625.91;;;-0.38;100.00
17635;BME280;8936;49.010;12.120;2023-02-28T01:50:20;98620.84;;;-0.25;100.00
17635;BME280;8936;49.010;12.120;2023-02-28T01:52:49;98623.41;;;-0.31;100.00
17635;BME280;8936;49.010;12.120;2023-02-28T01:55:16;98624.19;;;-0.31;100.00
17635;BME280;8936;49.010;12.120;2023-02-28T01:57:45;98618.84;;;0.00;100.00
17635;BME280;8936;49.010;12.120;2023-02-28T02:00:12;98615.06;;;0.17;100.00
17635;BME280;8936;49.010;12.120;2023-02-28T02:02:42;98617.19;;;-0.16;100.00
17635;BME280;8936;49.010;12.120;2023-02-28T02:05:11;98610.81;;;-0.21;100.00
17635;BME280;8936;49.010;12.120;2023-02-28T02:07:38;98616.22;;;0.00;100.00
17635;BME280;8936;49.010;12.120;2023-02-28T02:10:09;98609.00;;;0.46;100.00
17635;BME280;8936;49.010;12.120;2023-02-28T02:12:44;98610.06;;;0.66;100.00
17635;BME280;8936;49.010;12.120;2023-02-28T02:15:15;98618.16;;;0.65;100.00
17635;BME280;8936;49.010;12.120;2023-02-28T02:17:45;98605.53;;;0.89;100.00
17635;BME280;8936;49.010;12.120;2023-02-28T02:23:11;98613.91;;;1.14;100.00
17635;BME280;8936;49.010;12.120;2023-02-28T02:25:45;98612.75;;;0.87;100.00
17635;BME280;8936;49.010;12.120;2023-02-28T02:28:29;98609.00;;;0.17;100.00
17635;BME280;8936;49.010;12.120;2023-02-28T02:36:31;98609.63;;;-0.79;100.00
17635;BME280;8936;49.010;12.120;2023-02-28T02:39:01;98602.56;;;-0.33;100.00
17635;BME280;8936;49.010;12.120;2023-02-28T02:41:32;98606.59;;;-0.08;100.00
17635;BME280;8936;49.010;12.120;2023-02-28T02:44:02;98610.97;;;-0.37;100.00
17635;BME280;8936;49.010;12.120;2023-02-28T02:46:29;98610.63;;;-0.57;100.00
17635;BME280;8936;49.010;12.120;2023-02-28T02:48:58;98606.75;;;-0.24;100.00
17635;BME280;8936;49.010;12.120;2023-02-28T02:51:26;98617.75;;;-0.66;100.00
17635;BME280;8936;49.010;12.120;2023-02-28T02:53:56;98607.72;;;0.13;100.00
17635;BME280;8936;49.010;12.120;2023-02-28T02:56:24;98617.13;;;0.22;100.00
17635;BME280;8936;49.010;12.120;2023-02-28T02:58:53;98612.59;;;0.01;100.00
17635;BME280;8936;49.010;12.120;2023-02-28T03:01:20;98615.91;;;-0.20;100.00
17635;BME280;8936;49.010;12.120;2023-02-28T03:03:52;98618.31;;;0.05;100.00
17635;BME280;8936;49.010;12.120;2023-02-28T03:06:19;98617.31;;;-0.32;100.00
17635;BME280;8936;49.010;12.120;2023-02-28T03:08:46;98619.25;;;0.56;100.00
17635;BME280;8936;49.010;12.120;2023-02-28T03:11:13;98607.19;;;0.03;100.00
17635;BME280;8936;49.010;12.120;2023-02-28T03:13:51;98617.72;;;-0.06;100.00
17635;BME280;8936;49.010;12.120;2023-02-28T03:19:06;98618.25;;;0.71;100.00
17635;BME280;8936;49.010;12.120;2023-02-28T03:21:38;98620.06;;;1.06;100.00
17635;BME280;8936;49.010;12.120;2023-02-28T03:24:07;98611.59;;;1.26;100.00
17635;BME280;8936;49.010;12.120;2023-02-28T03:26:37;98610.38;;;1.28;100.00
17635;BME280;8936;49.010;12.120;2023-02-28T03:29:05;98612.78;;;1.23;100.00
17635;BME280;8936;49.010;12.120;2023-02-28T03:31:38;98612.88;;;1.36;100.00
17635;BME280;8936;49.010;12.120;2023-02-28T03:34:06;98617.84;;;1.46;100.00
17635;BME280;8936;49.010;12.120;2023-02-28T03:36:36;98610.84;;;1.32;100.00
17635;BME280;8936;49.010;12.120;2023-02-28T03:39:09;98617.00;;;1.39;100.00
17635;BME280;8936;49.010;12.120;2023-02-28T03:41:40;98623.00;;;1.33;100.00
17635;BME280;8936;49.010;12.120;2023-02-28T03:44:10;98618.28;;;1.49;100.00
17635;BME280;8936;49.010;12.120;2023-02-28T03:46:41;98615.66;;;1.28;100.00
17635;BME280;8936;49.010;12.120;2023-02-28T03:49:11;98617.69;;;1.12;100.00
17635;BME280;8936;49.010;12.120;2023-02-28T03:51:40;98613.84;;;1.29;100.00
17635;BME280;8936;49.010;12.120;2023-02-28T03:54:08;98621.44;;;1.38;100.00
17635;BME280;8936;49.010;12.120;2023-02-28T03:56:38;98622.41;;;1.16;100.00
17635;BME280;8936;49.010;12.120;2023-02-28T03:59:07;98617.78;;;1.39;100.00
17635;BME280;8936;49.010;12.120;2023-02-28T04:01:37;98611.72;;;1.39;100.00
17635;BME280;8936;49.010;12.120;2023-02-28T04:04:06;98617.44;;;1.42;100.00
17635;BME280;8936;49.010;12.120;2023-02-28T04:06:33;98623.41;;;1.36;100.00
17635;BME280;8936;49.010;12.120;2023-02-28T04:08:59;98620.56;;;1.52;100.00
17635;BME280;8936;49.010;12.120;2023-02-28T04:11:27;98616.84;;;1.47;100.00
17635;BME280;8936;49.010;12.120;2023-02-28T04:13:56;98616.63;;;1.42;100.00
17635;BME280;8936;49.010;12.120;2023-02-28T04:16:24;98631.75;;;1.19;100.00
17635;BME280;8936;49.010;12.120;2023-02-28T04:18:51;98627.66;;;0.80;100.00
17635;BME280;8936;49.010;12.120;2023-02-28T04:21:17;98627.13;;;0.41;100.00
17635;BME280;8936;49.010;12.120;2023-02-28T04:23:46;98629.94;;;0.54;100.00
17635;BME280;8936;49.010;12.120;2023-02-28T04:26:12;98621.41;;;0.37;100.00
17635;BME280;8936;49.010;12.120;2023-02-28T04:28:38;98626.38;;;0.18;100.00
17635;BME280;8936;49.010;12.120;2023-02-28T04:31:05;98626.50;;;0.24;100.00
17635;BME280;8936;49.010;12.120;2023-02-28T04:33:33;98628.81;;;0.05;100.00
17635;BME280;8936;49.010;12.120;2023-02-28T04:36:00;98618.50;;;-0.34;100.00
17635;BME280;8936;49.010;12.120;2023-02-28T04:38:27;98618.78;;;-0.29;100.00
17635;BME280;8936;49.010;12.120;2023-02-28T04:40:56;98616.84;;;-0.13;100.00
17635;BME280;8936;49.010;12.120;2023-02-28T04:43:22;98616.72;;;-0.65;100.00
17635;BME280;8936;49.010;12.120;2023-02-28T04:45:48;98623.16;;;-0.67;100.00
17635;BME280;8936;49.010;12.120;2023-02-28T04:48:15;98620.41;;;-0.51;100.00
17635;BME280;8936;49.010;12.120;2023-02-28T04:50:42;98623.69;;;-0.72;100.00
17635;BME280;8936;49.010;12.120;2023-02-28T04:53:09;98627.41;;;-0.66;100.00
17635;BME280;8936;49.010;12.120;2023-02-28T04:55:35;98622.09;;;-0.58;100.00
17635;BME280;8936;49.010;12.120;2023-02-28T04:58:01;98623.84;;;-0.73;100.00
17635;BME280;8936;49.010;12.120;2023-02-28T05:00:28;98624.03;;;-0.52;100.00
17635;BME280;8936;49.010;12.120;2023-02-28T05:02:54;98632.34;;;0.12;100.00
17635;BME280;8936;49.010;12.120;2023-02-28T05:05:20;98634.78;;;-0.02;100.00
17635;BME280;8936;49.010;12.120;2023-02-28T05:07:48;98630.56;;;-0.48;100.00
17635;BME280;8936;49.010;12.120;2023-02-28T05:10:15;98622.38;;;-0.30;100.00
17635;BME280;8936;49.010;12.120;2023-02-28T05:12:41;98631.06;;;-0.07;100.00
17635;BME280;8936;49.010;12.120;2023-02-28T05:15:07;98623.88;;;0.24;100.00
17635;BME280;8936;49.010;12.120;2023-02-28T05:17:35;98630.56;;;-0.25;100.00
17635;BME280;8936;49.010;12.120;2023-02-28T05:20:01;98628.19;;;-0.35;100.00
17635;BME280;8936;49.010;12.120;2023-02-28T05:22:29;98625.66;;;-0.51;100.00
17635;BME280;8936;49.010;12.120;2023-02-28T05:24:57;98625.13;;;-0.24;100.00
17635;BME280;8936;49.010;12.120;2023-02-28T05:27:24;98624.69;;;-0.50;100.00
17635;BME280;8936;49.010;12.120;2023-02-28T05:29:50;98631.16;;;-0.38;100.00
17635;BME280;8936;49.010;12.120;2023-02-28T05:32:16;98634.53;;;-0.29;100.00
17635;BME280;8936;49.010;12.120;2023-02-28T05:34:43;98632.78;;;0.00;100.00
17635;BME280;8936;49.010;12.120;2023-02-28T05:37:10;98635.91;;;-0.19;100.00
17635;BME280;8936;49.010;12.120;2023-02-28T05:39:37;98630.75;;;-0.12;100.00
17635;BME280;8936;49.010;12.120;2023-02-28T05:42:05;98631.44;;;0.19;100.00
17635;BME280;8936;49.010;12.120;2023-02-28T05:44:31;98633.66;;;0.45;100.00
17635;BME280;8936;49.010;12.120;2023-02-28T05:46:58;98628.41;;;0.30;100.00
17635;BME280;8936;49.010;12.120;2023-02-28T05:49:24;98637.34;;;0.50;100.00
17635;BME280;8936;49.010;12.120;2023-02-28T05:51:50;98636.16;;;0.09;100.00
17635;BME280;8936;49.010;12.120;2023-02-28T05:54:16;98634.06;;;0.05;100.00
17635;BME280;8936;49.010;12.120;2023-02-28T05:56:43;98631.94;;;0.52;100.00
17635;BME280;8936;49.010;12.120;2023-02-28T05:59:12;98643.78;;;0.92;100.00
17635;BME280;8936;49.010;12.120;2023-02-28T06:01:39;98647.69;;;0.52;100.00
17635;BME280;8936;49.010;12.120;2023-02-28T06:04:06;98637.81;;;0.69;100.00
17635;BME280;8936;49.010;12.120;2023-02-28T06:06:33;98652.41;;;0.86;100.00
17635;BME280;8936;49.010;12.120;2023-02-28T06:09:01;98652.94;;;0.81;100.00
17635;BME280;8936;49.010;12.120;2023-02-28T06:11:28;98645.34;;;0.86;100.00
17635;BME280;8936;49.010;12.120;2023-02-28T06:13:54;98648.16;;;0.70;100.00
17635;BME280;8936;49.010;12.120;2023-02-28T06:16:23;98650.59;;;0.57;100.00
17635;BME280;8936;49.010;12.120;2023-02-28T06:18:49;98649.50;;;0.51;100.00
17635;BME280;8936;49.010;12.120;2023-02-28T06:21:15;98651.41;;;0.72;100.00
17635;BME280;8936;49.010;12.120;2023-02-28T06:23:42;98653.84;;;0.88;100.00
17635;BME280;8936;49.010;12.120;2023-02-28T06:26:09;98659.47;;;0.85;100.00
17635;BME280;8936;49.010;12.120;2023-02-28T06:28:35;98660.09;;;0.87;100.00
17635;BME280;8936;49.010;12.120;2023-02-28T06:31:05;98660.25;;;1.00;100.00
17635;BME280;8936;49.010;12.120;2023-02-28T06:33:33;98667.72;;;0.68;100.00
17635;BME280;8936;49.010;12.120;2023-02-28T06:36:00;98660.31;;;0.71;100.00
17635;BME280;8936;49.010;12.120;2023-02-28T06:38:28;98661.00;;;0.65;100.00
17635;BME280;8936;49.010;12.120;2023-02-28T06:40:54;98664.19;;;0.75;100.00
17635;BME280;8936;49.010;12.120;2023-02-28T06:43:21;98669.19;;;0.56;100.00
17635;BME280;8936;49.010;12.120;2023-02-28T06:45:47;98670.53;;;0.51;100.00
17635;BME280;8936;49.010;12.120;2023-02-28T06:48:13;98674.72;;;0.46;100.00
17635;BME280;8936;49.010;12.120;2023-02-28T06:50:41;98679.59;;;0.78;100.00
17635;BME280;8936;49.010;12.120;2023-02-28T06:53:07;98678.34;;;0.74;100.00
17635;BME280;8936;49.010;12.120;2023-02-28T06:55:34;98676.25;;;0.55;100.00
17635;BME280;8936;49.010;12.120;2023-02-28T06:58:00;98675.78;;;0.51;100.00
17635;BME280;8936;49.010;12.120;2023-02-28T07:00:27;98678.06;;;0.40;100.00
17635;BME280;8936;49.010;12.120;2023-02-28T07:02:53;98673.25;;;0.58;100.00
17635;BME280;8936;49.010;12.120;2023-02-28T07:05:20;98682.22;;;0.64;100.00
17635;BME280;8936;49.010;12.120;2023-02-28T07:07:48;98681.88;;;0.52;100.00
17635;BME280;8936;49.010;12.120;2023-02-28T07:10:14;98684.13;;;0.55;100.00
17635;BME280;8936;49.010;12.120;2023-02-28T07:12:42;98685.13;;;0.54;100.00
17635;BME280;8936;49.010;12.120;2023-02-28T07:15:09;98681.56;;;0.47;100.00
17635;BME280;8936;49.010;12.120;2023-02-28T07:17:35;98684.50;;;0.67;100.00
17635;BME280;8936;49.010;12.120;2023-02-28T07:20:01;98680.06;;;0.67;100.00
17635;BME280;8936;49.010;12.120;2023-02-28T07:22:29;98684.28;;;0.68;100.00
17635;BME280;8936;49.010;12.120;2023-02-28T07:24:57;98688.41;;;0.85;100.00
17635;BME280;8936;49.010;12.120;2023-02-28T07:27:23;98688.28;;;0.93;100.00
17635;BME280;8936;49.010;12.120;2023-02-28T07:29:50;98695.00;;;0.81;100.00
17635;BME280;8936;49.010;12.120;2023-02-28T07:32:17;98686.75;;;0.84;100.00
17635;BME280;8936;49.010;12.120;2023-02-28T07:34:43;98687.78;;;0.83;100.00
17635;BME280;8936;49.010;12.120;2023-02-28T07:37:09;98684.84;;;0.93;100.00
17635;BME280;8936;49.010;12.120;2023-02-28T07:39:36;98689.13;;;0.79;100.00
17635;BME280;8936;49.010;12.120;2023-02-28T07:42:05;98694.38;;;0.79;100.00
17635;BME280;8936;49.010;12.120;2023-02-28T07:44:34;98700.16;;;1.04;100.00
17635;BME280;8936;49.010;12.120;2023-02-28T07:47:05;98687.63;;;1.06;100.00
17635;BME280;8936;49.010;12.120;2023-02-28T07:49:31;98694.66;;;0.99;100.00
17635;BME280;8936;49.010;12.120;2023-02-28T07:51:58;98695.28;;;0.86;100.00
17635;BME280;8936;49.010;12.120;2023-02-28T07:54:24;98696.75;;;0.89;100.00
17635;BME280;8936;49.010;12.120;2023-02-28T07:56:50;98706.97;;;1.13;100.00
17635;BME280;8936;49.010;12.120;2023-02-28T07:59:18;98700.09;;;0.97;100.00
17635;BME280;8936;49.010;12.120;2023-02-28T08:01:44;98703.25;;;1.07;100.00
17635;BME280;8936;49.010;12.120;2023-02-28T08:04:11;98696.81;;;1.10;100.00
17635;BME280;8936;49.010;12.120;2023-02-28T08:06:37;98701.50;;;1.15;100.00
17635;BME280;8936;49.010;12.120;2023-02-28T08:09:03;98697.78;;;1.09;100.00
17635;BME280;8936;49.010;12.120;2023-02-28T08:11:30;98697.78;;;1.24;100.00
17635;BME280;8936;49.010;12.120;2023-02-28T08:13:56;98696.84;;;1.31;100.00
17635;BME280;8936;49.010;12.120;2023-02-28T08:16:24;98694.50;;;1.22;100.00
17635;BME280;8936;49.010;12.120;2023-02-28T08:18:50;98699.84;;;1.28;100.00
17635;BME280;8936;49.010;12.120;2023-02-28T08:21:17;98703.22;;;1.22;100.00
17635;BME280;8936;49.010;12.120;2023-02-28T08:23:45;98706.75;;;1.29;100.00
17635;BME280;8936;49.010;12.120;2023-02-28T08:26:12;98708.94;;;1.26;100.00
17635;BME280;8936;49.010;12.120;2023-02-28T08:28:38;98711.72;;;1.39;100.00
17635;BME280;8936;49.010;12.120;2023-02-28T08:31:08;98709.84;;;1.33;100.00
17635;BME280;8936;49.010;12.120;2023-02-28T08:33:36;98712.28;;;1.34;100.00
17635;BME280;8936;49.010;12.120;2023-02-28T08:36:04;98713.78;;;1.43;100.00
17635;BME280;8936;49.010;12.120;2023-02-28T08:38:30;98706.72;;;1.44;100.00
17635;BME280;8936;49.010;12.120;2023-02-28T08:40:57;98722.75;;;1.49;100.00
17635;BME280;8936;49.010;12.120;2023-02-28T08:43:24;98720.78;;;1.51;100.00
17635;BME280;8936;49.010;12.120;2023-02-28T08:45:51;98714.25;;;1.47;100.00
17635;BME280;8936;49.010;12.120;2023-02-28T08:48:17;98732.19;;;1.58;100.00
17635;BME280;8936;49.010;12.120;2023-02-28T08:50:45;98726.41;;;1.48;100.00
17635;BME280;8936;49.010;12.120;2023-02-28T08:53:20;98724.94;;;1.60;100.00
17635;BME280;8936;49.010;12.120;2023-02-28T08:55:46;98723.28;;;1.59;100.00
17635;BME280;8936;49.010;12.120;2023-02-28T08:58:12;98728.56;;;1.59;100.00
17635;BME280;8936;49.010;12.120;2023-02-28T09:00:39;98729.53;;;1.58;100.00
17635;BME280;8936;49.010;12.120;2023-02-28T09:03:05;98719.22;;;1.56;100.00
17635;BME280;8936;49.010;12.120;2023-02-28T09:05:31;98727.28;;;1.55;100.00
17635;BME280;8936;49.010;12.120;2023-02-28T09:07:59;98726.16;;;1.64;100.00
17635;BME280;8936;49.010;12.120;2023-02-28T09:10:25;98718.41;;;1.77;100.00
17635;BME280;8936;49.010;12.120;2023-02-28T09:12:52;98716.72;;;1.70;100.00
17635;BME280;8936;49.010;12.120;2023-02-28T09:15:18;98721.34;;;1.68;100.00
17635;BME280;8936;49.010;12.120;2023-02-28T09:17:45;98723.53;;;1.64;100.00
17635;BME280;8936;49.010;12.120;2023-02-28T09:20:11;98706.75;;;1.65;100.00
17635;BME280;8936;49.010;12.120;2023-02-28T09:22:38;98725.50;;;1.77;100.00
17635;BME280;8936;49.010;12.120;2023-02-28T09:25:06;98710.50;;;1.77;100.00
17635;BME280;8936;49.010;12.120;2023-02-28T09:27:32;98717.59;;;1.77;100.00
17635;BME280;8936;49.010;12.120;2023-02-28T09:29:58;98725.19;;;1.86;100.00
17635;BME280;8936;49.010;12.120;2023-02-28T09:32:25;98727.19;;;1.84;100.00
17635;BME280;8936;49.010;12.120;2023-02-28T09:34:51;98720.66;;;1.80;100.00
17635;BME280;8936;49.010;12.120;2023-02-28T09:37:17;98722.06;;;1.97;100.00
17635;BME280;8936;49.010;12.120;2023-02-28T09:39:44;98731.53;;;1.92;100.00
17635;BME280;8936;49.010;12.120;2023-02-28T09:42:13;98726.06;;;1.93;100.00
17635;BME280;8936;49.010;12.120;2023-02-28T09:44:44;98722.19;;;1.89;100.00
17635;BME280;8936;49.010;12.120;2023-02-28T09:47:14;98728.34;;;1.96;100.00
17635;BME280;8936;49.010;12.120;2023-02-28T09:49:44;98727.34;;;1.97;100.00
17635;BME280;8936;49.010;12.120;2023-02-28T09:52:12;98733.91;;;2.08;99.02
17635;BME280;8936;49.010;12.120;2023-02-28T09:54:40;98727.81;;;2.07;98.92
17635;BME280;8936;49.010;12.120;2023-02-28T09:57:08;98724.81;;;1.89;99.25
17635;BME280;8936;49.010;12.120;2023-02-28T09:59:39;98729.06;;;2.11;100.00
17635;BME280;8936;49.010;12.120;2023-02-28T10:02:21;98732.34;;;2.13;100.00
17635;BME280;8936;49.010;12.120;2023-02-28T10:04:49;98722.81;;;2.12;98.36
17635;BME280;8936;49.010;12.120;2023-02-28T10:07:22;98736.50;;;2.23;97.71
17635;BME280;8936;49.010;12.120;2023-02-28T10:09:51;98734.28;;;2.05;98.74
17635;BME280;8936;49.010;12.120;2023-02-28T10:12:19;98733.16;;;2.14;98.89
17635;BME280;8936;49.010;12.120;2023-02-28T10:14:47;98726.41;;;2.33;97.98
17635;BME280;8936;49.010;12.120;2023-02-28T10:17:16;98733.22;;;2.21;98.01
17635;BME280;8936;49.010;12.120;2023-02-28T10:19:46;98736.66;;;2.21;98.38
17635;BME280;8936;49.010;12.120;2023-02-28T10:22:17;98728.06;;;2.34;96.44
17635;BME280;8936;49.010;12.120;2023-02-28T10:24:45;98739.47;;;2.41;96.04
17635;BME280;8936;49.010;12.120;2023-02-28T10:27:13;98734.66;;;2.44;94.83
17635;BME280;8936;49.010;12.120;2023-02-28T10:29:40;98736.41;;;2.65;94.42
17635;BME280;8936;49.010;12.120;2023-02-28T10:32:10;98733.28;;;2.55;94.02
17635;BME280;8936;49.010;12.120;2023-02-28T10:34:38;98729.94;;;2.67;95.16
17635;BME280;8936;49.010;12.120;2023-02-28T10:37:04;98742.63;;;2.85;94.16
17635;BME280;8936;49.010;12.120;2023-02-28T10:39:34;98743.00;;;2.82;92.28
17635;BME280;8936;49.010;12.120;2023-02-28T10:42:00;98734.78;;;2.98;91.28
17635;BME280;8936;49.010;12.120;2023-02-28T10:44:27;98733.75;;;2.93;89.74
17635;BME280;8936;49.010;12.120;2023-02-28T10:46:53;98741.66;;;3.27;90.80
17635;BME280;8936;49.010;12.120;2023-02-28T10:49:21;98737.59;;;3.24;89.70
17635;BME280;8936;49.010;12.120;2023-02-28T10:51:49;98740.91;;;3.40;88.88
17635;BME280;8936;49.010;12.120;2023-02-28T10:54:18;98733.13;;;3.32;86.97
17635;BME280;8936;49.010;12.120;2023-02-28T10:56:45;98732.50;;;3.23;87.58
17635;BME280;8936;49.010;12.120;2023-02-28T10:59:22;98729.34;;;3.47;86.68
17635;BME280;8936;49.010;12.120;2023-02-28T11:01:52;98734.97;;;3.31;87.94
17635;BME280;8936;49.010;12.120;2023-02-28T11:04:19;98724.84;;;3.41;88.76
17635;BME280;8936;49.010;12.120;2023-02-28T11:06:48;98726.75;;;3.60;87.28
17635;BME280;8936;49.010;12.120;2023-02-28T11:09:23;98724.66;;;3.43;86.25
17635;BME280;8936;49.010;12.120;2023-02-28T11:11:51;98728.38;;;3.55;88.06
17635;BME280;8936;49.010;12.120;2023-02-28T11:14:19;98719.06;;;3.78;86.25
17635;BME280;8936;49.010;12.120;2023-02-28T11:16:46;98729.41;;;3.67;86.87
17635;BME280;8936;49.010;12.120;2023-02-28T11:19:16;98723.13;;;3.81;88.37
17635;BME280;8936;49.010;12.120;2023-02-28T11:21:47;98716.25;;;4.00;86.32
17635;BME280;8936;49.010;12.120;2023-02-28T11:24:18;98725.56;;;3.69;85.42
17635;BME280;8936;49.010;12.120;2023-02-28T11:26:48;98722.13;;;3.82;86.35
17635;BME280;8936;49.010;12.120;2023-02-28T11:29:19;98720.72;;;3.79;85.58
17635;BME280;8936;49.010;12.120;2023-02-28T11:32:03;98714.03;;;3.84;86.20
17635;BME280;8936;49.010;12.120;2023-02-28T11:34:29;98708.13;;;3.88;85.82
17635;BME280;8936;49.010;12.120;2023-02-28T11:36:56;98715.44;;;3.86;86.65
17635;BME280;8936;49.010;12.120;2023-02-28T11:39:25;98712.03;;;4.05;86.88
17635;BME280;8936;49.010;12.120;2023-02-28T11:41:55;98711.00;;;4.13;84.70
17635;BME280;8936;49.010;12.120;2023-02-28T11:44:29;98709.78;;;4.02;83.02
17635;BME280;8936;49.010;12.120;2023-02-28T11:46:59;98708.38;;;4.19;86.03
17635;BME280;8936;49.010;12.120;2023-02-28T11:49:31;98704.31;;;4.30;85.78
17635;BME280;8936;49.010;12.120;2023-02-28T11:52:01;98709.97;;;4.53;86.37
17635;BME280;8936;49.010;12.120;2023-02-28T11:54:39;98706.34;;;4.48;84.77
17635;BME280;8936;49.010;12.120;2023-02-28T11:57:15;98711.00;;;4.59;84.88
17635;BME280;8936;49.010;12.120;2023-02-28T11:59:50;98714.88;;;4.63;83.27
17635;BME280;8936;49.010;12.120;2023-02-28T12:02:25;98705.75;;;4.39;83.20
17635;BME280;8936;49.010;12.120;2023-02-28T12:05:03;98704.28;;;4.43;82.09
17635;BME280;8936;49.010;12.120;2023-02-28T12:07:35;98715.50;;;4.39;83.58
17635;BME280;8936;49.010;12.120;2023-02-28T12:10:09;98702.88;;;4.54;81.79
17635;BME280;8936;49.010;12.120;2023-02-28T12:12:42;98711.81;;;4.53;83.53
17635;BME280;8936;49.010;12.120;2023-02-28T12:15:21;98710.19;;;4.32;80.47
17635;BME280;8936;49.010;12.120;2023-02-28T12:17:51;98698.41;;;4.34;81.44
17635;BME280;8936;49.010;12.120;2023-02-28T12:20:24;98704.69;;;4.60;83.24
17635;BME280;8936;49.010;12.120;2023-02-28T12:22:54;98702.63;;;4.75;80.18
17635;BME280;8936;49.010;12.120;2023-02-28T12:25:28;98692.47;;;4.59;79.75
17635;BME280;8936;49.010;12.120;2023-02-28T12:28:01;98690.28;;;4.29;80.80
17635;BME280;8936;49.010;12.120;2023-02-28T12:30:28;98690.88;;;4.38;82.54
17635;BME280;8936;49.010;12.120;2023-02-28T12:32:56;98686.41;;;4.52;83.07
17635;BME280;8936;49.010;12.120;2023-02-28T12:35:25;98680.69;;;4.55;84.48
17635;BME280;8936;49.010;12.120;2023-02-28T12:37:54;98681.91;;;4.59;82.28
17635;BME280;8936;49.010;12.120;2023-02-28T12:40:22;98676.41;;;4.54;82.08
17635;BME280;8936;49.010;12.120;2023-02-28T12:42:51;98676.00;;;4.57;83.67
17635;BME280;8936;49.010;12.120;2023-02-28T12:45:18;98676.81;;;4.64;81.43
17635;BME280;8936;49.010;12.120;2023-02-28T12:47:46;98684.13;;;4.62;82.18
17635;BME280;8936;49.010;12.120;2023-02-28T12:50:14;98678.81;;;4.75;82.44
17635;BME280;8936;49.010;12.120;2023-02-28T12:52:41;98673.94;;;4.78;81.12
17635;BME280;8936;49.010;12.120;2023-02-28T12:55:14;98667.66;;;4.66;79.91
17635;BME280;8936;49.010;12.120;2023-02-28T12:57:42;98668.88;;;4.64;80.80
17635;BME280;8936;49.010;12.120;2023-02-28T13:00:13;98666.66;;;4.61;81.85
17635;BME280;8936;49.010;12.120;2023-02-28T13:08:23;98665.00;;;4.60;81.75
17635;BME280;8936;49.010;12.120;2023-02-28T13:10:53;98672.53;;;4.69;82.35
17635;BME280;8936;49.010;12.120;2023-02-28T13:13:21;98663.38;;;4.59;82.81
17635;BME280;8936;49.010;12.120;2023-02-28T13:15:59;98668.66;;;4.72;82.00
17635;BME280;8936;49.010;12.120;2023-02-28T13:18:30;98673.53;;;4.75;81.29
17635;BME280;8936;49.010;12.120;2023-02-28T13:20:57;98668.47;;;4.67;80.91
17635;BME280;8936;49.010;12.120;2023-02-28T13:26:05;98667.66;;;4.73;81.63